sensor_id;sensor_type;location;lat;lon;timestamp;P1;durP1;ratioP1;P2;durP2;ratioP2
20629;SDS011;17386;43.846;25.950;2023-05-23T00:02:11;11.05;;;6.40;;
20629;SDS011;17386;43.846;25.950;2023-05-23T00:04:37;10.10;;;6.47;;
20629;SDS011;17386;43.846;25.950;2023-05-23T00:07:04;12.07;;;6.55;;
20629;SDS011;17386;43.846;25.950;2023-05-23T00:09:30;12.63;;;7.07;;
20629;SDS011;17386;43.846;25.950;2023-05-23T00:11:55;11.57;;;6.47;;
20629;SDS011;17386;43.846;25.950;2023-05-23T00:14:22;12.02;;;6.65;;
20629;SDS011;17386;43.846;25.950;2023-05-23T00:16:47;15.13;;;7.75;;
20629;SDS011;17386;43.846;25.950;2023-05-23T00:19:14;11.75;;;6.85;;
20629;SDS011;17386;43.846;25.950;2023-05-23T00:21:40;12.13;;;8.05;;
20629;SDS011;17386;43.846;25.950;2023-05-23T00:24:09;12.20;;;7.13;;
20629;SDS011;17386;43.846;25.950;2023-05-23T00:26:36;10.80;;;7.45;;
20629;SDS011;17386;43.846;25.950;2023-05-23T00:29:02;13.05;;;8.68;;
20629;SDS011;17386;43.846;25.950;2023-05-23T00:31:29;13.27;;;8.35;;
20629;SDS011;17386;43.846;25.950;2023-05-23T00:33:56;12.82;;;8.05;;
20629;SDS011;17386;43.846;25.950;2023-05-23T00:36:23;15.27;;;8.65;;
20629;SDS011;17386;43.846;25.950;2023-05-23T00:38:50;15.07;;;9.57;;
20629;SDS011;17386;43.846;25.950;2023-05-23T00:41:16;14.07;;;7.82;;
20629;SDS011;17386;43.846;25.950;2023-05-23T00:43:42;16.95;;;9.07;;
20629;SDS011;17386;43.846;25.950;2023-05-23T00:46:09;15.27;;;9.05;;
20629;SDS011;17386;43.846;25.950;2023-05-23T00:48:36;16.10;;;8.45;;
20629;SDS011;17386;43.846;25.950;2023-05-23T00:53:31;13.40;;;7.32;;
20629;SDS011;17386;43.846;25.950;2023-05-23T00:55:57;13.75;;;7.47;;
20629;SDS011;17386;43.846;25.950;2023-05-23T00:58:23;12.80;;;7.43;;
20629;SDS011;17386;43.846;25.950;2023-05-23T01:00:48;11.77;;;7.07;;
20629;SDS011;17386;43.846;25.950;2023-05-23T01:03:14;16.27;;;7.15;;
20629;SDS011;17386;43.846;25.950;2023-05-23T01:05:43;14.15;;;7.32;;
20629;SDS011;17386;43.846;25.950;2023-05-23T01:08:10;11.85;;;7.22;;
20629;SDS011;17386;43.846;25.950;2023-05-23T01:10:36;14.48;;;7.53;;
20629;SDS011;17386;43.846;25.950;2023-05-23T01:15:41;16.75;;;8.50;;
20629;SDS011;17386;43.846;25.950;2023-05-23T01:18:12;14.00;;;7.68;;
20629;SDS011;17386;43.846;25.950;2023-05-23T01:20:52;13.30;;;6.82;;
20629;SDS011;17386;43.846;25.950;2023-05-23T01:28:57;12.85;;;6.78;;
20629;SDS011;17386;43.846;25.950;2023-05-23T01:31:34;15.68;;;7.35;;
20629;SDS011;17386;43.846;25.950;2023-05-23T01:34:04;12.10;;;7.00;;
20629;SDS011;17386;43.846;25.950;2023-05-23T01:36:33;17.92;;;7.75;;
20629;SDS011;17386;43.846;25.950;2023-05-23T01:39:04;12.05;;;6.78;;
20629;SDS011;17386;43.846;25.950;2023-05-23T01:41:30;10.52;;;6.20;;
20629;SDS011;17386;43.846;25.950;2023-05-23T01:43:55;10.30;;;5.60;;
20629;SDS011;17386;43.846;25.950;2023-05-23T01:46:22;10.43;;;6.88;;
20629;SDS011;17386;43.846;25.950;2023-05-23T01:51:15;9.85;;;6.10;;
20629;SDS011;17386;43.846;25.950;2023-05-23T01:53:42;11.57;;;6.38;;
20629;SDS011;17386;43.846;25.950;2023-05-23T01:56:09;11.23;;;6.47;;
20629;SDS011;17386;43.846;25.950;2023-05-23T01:58:34;11.57;;;6.88;;
20629;SDS011;17386;43.846;25.950;2023-05-23T02:01:00;11.30;;;7.30;;
20629;SDS011;17386;43.846;25.950;2023-05-23T02:03:27;15.85;;;7.95;;
20629;SDS011;17386;43.846;25.950;2023-05-23T02:05:53;15.50;;;7.65;;
20629;SDS011;17386;43.846;25.950;2023-05-23T02:08:18;12.38;;;7.55;;
20629;SDS011;17386;43.846;25.950;2023-05-23T02:10:44;15.25;;;7.32;;
20629;SDS011;17386;43.846;25.950;2023-05-23T02:13:11;12.88;;;7.85;;
20629;SDS011;17386;43.846;25.950;2023-05-23T02:15:38;14.60;;;7.53;;
20629;SDS011;17386;43.846;25.950;2023-05-23T02:18:04;11.55;;;6.90;;
20629;SDS011;17386;43.846;25.950;2023-05-23T02:20:31;13.88;;;7.25;;
20629;SDS011;17386;43.846;25.950;2023-05-23T02:22:56;12.30;;;6.97;;
20629;SDS011;17386;43.846;25.950;2023-05-23T02:25:23;14.70;;;7.47;;
20629;SDS011;17386;43.846;25.950;2023-05-23T02:27:50;12.88;;;7.07;;
20629;SDS011;17386;43.846;25.950;2023-05-23T02:30:17;12.10;;;6.45;;
20629;SDS011;17386;43.846;25.950;2023-05-23T02:32:44;10.10;;;6.53;;
20629;SDS011;17386;43.846;25.950;2023-05-23T02:35:11;11.95;;;7.75;;
20629;SDS011;17386;43.846;25.950;2023-05-23T02:37:39;12.32;;;7.15;;
20629;SDS011;17386;43.846;25.950;2023-05-23T02:40:05;13.15;;;7.05;;
20629;SDS011;17386;43.846;25.950;2023-05-23T02:42:33;13.50;;;6.78;;
20629;SDS011;17386;43.846;25.950;2023-05-23T02:44:59;14.18;;;6.63;;
20629;SDS011;17386;43.846;25.950;2023-05-23T02:47:26;11.27;;;6.63;;
20629;SDS011;17386;43.846;25.950;2023-05-23T02:49:53;12.02;;;6.70;;
20629;SDS011;17386;43.846;25.950;2023-05-23T02:52:20;12.68;;;7.55;;
20629;SDS011;17386;43.846;25.950;2023-05-23T02:54:47;12.95;;;7.05;;
20629;SDS011;17386;43.846;25.950;2023-05-23T02:57:13;13.15;;;6.85;;
20629;SDS011;17386;43.846;25.950;2023-05-23T02:59:39;11.43;;;6.53;;
20629;SDS011;17386;43.846;25.950;2023-05-23T03:02:06;13.65;;;6.55;;
20629;SDS011;17386;43.846;25.950;2023-05-23T03:04:32;12.38;;;6.93;;
20629;SDS011;17386;43.846;25.950;2023-05-23T03:06:58;10.45;;;7.53;;
20629;SDS011;17386;43.846;25.950;2023-05-23T03:09:23;12.20;;;7.20;;
20629;SDS011;17386;43.846;25.950;2023-05-23T03:11:51;14.35;;;7.70;;
20629;SDS011;17386;43.846;25.950;2023-05-23T03:14:16;12.55;;;7.13;;
20629;SDS011;17386;43.846;25.950;2023-05-23T03:16:42;16.20;;;7.60;;
20629;SDS011;17386;43.846;25.950;2023-05-23T03:19:07;15.88;;;7.82;;
20629;SDS011;17386;43.846;25.950;2023-05-23T03:21:33;12.18;;;7.70;;
20629;SDS011;17386;43.846;25.950;2023-05-23T03:23:59;15.15;;;7.85;;
20629;SDS011;17386;43.846;25.950;2023-05-23T03:26:26;17.02;;;6.95;;
20629;SDS011;17386;43.846;25.950;2023-05-23T03:28:53;13.82;;;6.88;;
20629;SDS011;17386;43.846;25.950;2023-05-23T03:31:18;12.38;;;7.38;;
20629;SDS011;17386;43.846;25.950;2023-05-23T03:33:45;13.70;;;8.85;;
20629;SDS011;17386;43.846;25.950;2023-05-23T03:36:11;14.38;;;6.97;;
20629;SDS011;17386;43.846;25.950;2023-05-23T03:38:37;15.30;;;9.10;;
20629;SDS011;17386;43.846;25.950;2023-05-23T03:41:02;14.05;;;9.00;;
20629;SDS011;17386;43.846;25.950;2023-05-23T03:43:28;14.32;;;8.35;;
20629;SDS011;17386;43.846;25.950;2023-05-23T03:45:53;16.75;;;8.27;;
20629;SDS011;17386;43.846;25.950;2023-05-23T03:48:18;13.85;;;8.40;;
20629;SDS011;17386;43.846;25.950;2023-05-23T03:50:44;14.15;;;8.65;;
20629;SDS011;17386;43.846;25.950;2023-05-23T03:53:11;14.65;;;8.00;;
20629;SDS011;17386;43.846;25.950;2023-05-23T03:55:38;13.18;;;7.65;;
20629;SDS011;17386;43.846;25.950;2023-05-23T03:58:04;14.32;;;8.50;;
20629;SDS011;17386;43.846;25.950;2023-05-23T04:00:32;16.65;;;9.05;;
20629;SDS011;17386;43.846;25.950;2023-05-23T04:02:58;25.42;;;11.40;;
20629;SDS011;17386;43.846;25.950;2023-05-23T04:05:24;18.33;;;8.80;;
20629;SDS011;17386;43.846;25.950;2023-05-23T04:07:49;14.80;;;8.50;;
20629;SDS011;17386;43.846;25.950;2023-05-23T04:10:18;13.43;;;7.65;;
20629;SDS011;17386;43.846;25.950;2023-05-23T04:12:44;14.13;;;7.70;;
20629;SDS011;17386;43.846;25.950;2023-05-23T04:15:13;16.25;;;9.40;;
20629;SDS011;17386;43.846;25.950;2023-05-23T04:17:39;16.73;;;9.13;;
20629;SDS011;17386;43.846;25.950;2023-05-23T04:20:06;16.92;;;8.85;;
20629;SDS011;17386;43.846;25.950;2023-05-23T04:22:33;15.18;;;8.88;;
20629;SDS011;17386;43.846;25.950;2023-05-23T04:24:59;18.63;;;8.70;;
20629;SDS011;17386;43.846;25.950;2023-05-23T04:27:25;15.88;;;8.90;;
20629;SDS011;17386;43.846;25.950;2023-05-23T04:29:52;17.83;;;8.77;;
20629;SDS011;17386;43.846;25.950;2023-05-23T04:32:19;16.67;;;8.82;;
20629;SDS011;17386;43.846;25.950;2023-05-23T04:34:47;19.17;;;8.68;;
20629;SDS011;17386;43.846;25.950;2023-05-23T04:37:15;15.43;;;8.52;;
20629;SDS011;17386;43.846;25.950;2023-05-23T04:39:42;17.05;;;9.05;;
20629;SDS011;17386;43.846;25.950;2023-05-23T04:42:09;18.95;;;9.13;;
20629;SDS011;17386;43.846;25.950;2023-05-23T04:44:35;18.63;;;9.02;;
20629;SDS011;17386;43.846;25.950;2023-05-23T04:47:03;20.90;;;9.88;;
20629;SDS011;17386;43.846;25.950;2023-05-23T04:49:29;17.80;;;9.02;;
20629;SDS011;17386;43.846;25.950;2023-05-23T04:51:58;17.23;;;8.85;;
20629;SDS011;17386;43.846;25.950;2023-05-23T04:54:24;16.65;;;8.50;;
20629;SDS011;17386;43.846;25.950;2023-05-23T04:56:50;15.40;;;8.57;;
20629;SDS011;17386;43.846;25.950;2023-05-23T04:59:15;16.13;;;8.50;;
20629;SDS011;17386;43.846;25.950;2023-05-23T05:01:42;18.13;;;9.30;;
20629;SDS011;17386;43.846;25.950;2023-05-23T05:04:09;17.67;;;9.48;;
20629;SDS011;17386;43.846;25.950;2023-05-23T05:06:34;16.98;;;9.35;;
20629;SDS011;17386;43.846;25.950;2023-05-23T05:09:00;16.95;;;9.88;;
20629;SDS011;17386;43.846;25.950;2023-05-23T05:11:25;15.32;;;9.68;;
20629;SDS011;17386;43.846;25.950;2023-05-23T05:13:51;16.25;;;9.85;;
20629;SDS011;17386;43.846;25.950;2023-05-23T05:16:16;16.70;;;9.52;;
20629;SDS011;17386;43.846;25.950;2023-05-23T05:18:42;17.92;;;9.07;;
20629;SDS011;17386;43.846;25.950;2023-05-23T05:21:07;17.70;;;9.00;;
20629;SDS011;17386;43.846;25.950;2023-05-23T05:23:34;16.67;;;8.85;;
20629;SDS011;17386;43.846;25.950;2023-05-23T05:26:01;15.27;;;8.73;;
20629;SDS011;17386;43.846;25.950;2023-05-23T05:28:28;17.13;;;9.70;;
20629;SDS011;17386;43.846;25.950;2023-05-23T05:30:55;17.42;;;9.10;;
20629;SDS011;17386;43.846;25.950;2023-05-23T05:33:22;18.90;;;9.80;;
20629;SDS011;17386;43.846;25.950;2023-05-23T05:35:50;28.73;;;10.88;;
20629;SDS011;17386;43.846;25.950;2023-05-23T05:38:16;20.80;;;11.10;;
20629;SDS011;17386;43.846;25.950;2023-05-23T05:40:43;22.38;;;10.70;;
20629;SDS011;17386;43.846;25.950;2023-05-23T05:43:10;17.98;;;10.00;;
20629;SDS011;17386;43.846;25.950;2023-05-23T05:45:36;25.52;;;10.68;;
20629;SDS011;17386;43.846;25.950;2023-05-23T05:48:03;14.48;;;9.68;;
20629;SDS011;17386;43.846;25.950;2023-05-23T05:50:30;14.73;;;9.00;;
20629;SDS011;17386;43.846;25.950;2023-05-23T05:52:57;15.52;;;9.20;;
20629;SDS011;17386;43.846;25.950;2023-05-23T05:55:23;16.58;;;9.88;;
20629;SDS011;17386;43.846;25.950;2023-05-23T05:57:49;15.30;;;9.15;;
20629;SDS011;17386;43.846;25.950;2023-05-23T06:00:16;18.45;;;9.35;;
20629;SDS011;17386;43.846;25.950;2023-05-23T06:02:43;15.50;;;9.43;;
20629;SDS011;17386;43.846;25.950;2023-05-23T06:05:13;53.90;;;15.05;;
20629;SDS011;17386;43.846;25.950;2023-05-23T06:07:42;21.08;;;10.13;;
20629;SDS011;17386;43.846;25.950;2023-05-23T06:10:09;15.13;;;8.73;;
20629;SDS011;17386;43.846;25.950;2023-05-23T06:12:39;16.13;;;8.88;;
20629;SDS011;17386;43.846;25.950;2023-05-23T06:15:05;15.55;;;9.10;;
20629;SDS011;17386;43.846;25.950;2023-05-23T06:17:32;15.75;;;9.60;;
20629;SDS011;17386;43.846;25.950;2023-05-23T06:19:58;18.52;;;9.77;;
20629;SDS011;17386;43.846;25.950;2023-05-23T06:22:25;14.80;;;9.27;;
20629;SDS011;17386;43.846;25.950;2023-05-23T06:24:52;17.98;;;10.23;;
20629;SDS011;17386;43.846;25.950;2023-05-23T06:27:19;22.30;;;11.70;;
20629;SDS011;17386;43.846;25.950;2023-05-23T06:29:45;22.77;;;10.45;;
20629;SDS011;17386;43.846;25.950;2023-05-23T06:32:13;24.00;;;10.80;;
20629;SDS011;17386;43.846;25.950;2023-05-23T06:34:40;22.50;;;10.88;;
20629;SDS011;17386;43.846;25.950;2023-05-23T06:37:06;18.52;;;9.93;;
20629;SDS011;17386;43.846;25.950;2023-05-23T06:39:32;24.77;;;11.40;;
20629;SDS011;17386;43.846;25.950;2023-05-23T06:41:57;17.63;;;10.07;;
20629;SDS011;17386;43.846;25.950;2023-05-23T06:44:22;14.23;;;8.82;;
20629;SDS011;17386;43.846;25.950;2023-05-23T06:46:49;14.73;;;7.80;;
20629;SDS011;17386;43.846;25.950;2023-05-23T06:49:16;15.85;;;8.65;;
20629;SDS011;17386;43.846;25.950;2023-05-23T06:51:43;16.20;;;9.45;;
20629;SDS011;17386;43.846;25.950;2023-05-23T06:54:08;19.45;;;8.57;;
20629;SDS011;17386;43.846;25.950;2023-05-23T06:56:34;15.98;;;9.43;;
20629;SDS011;17386;43.846;25.950;2023-05-23T06:58:59;14.57;;;8.10;;
20629;SDS011;17386;43.846;25.950;2023-05-23T07:01:26;18.50;;;8.70;;
20629;SDS011;17386;43.846;25.950;2023-05-23T07:03:51;20.70;;;9.77;;
20629;SDS011;17386;43.846;25.950;2023-05-23T07:06:16;25.17;;;13.35;;
20629;SDS011;17386;43.846;25.950;2023-05-23T07:08:42;13.23;;;7.47;;
20629;SDS011;17386;43.846;25.950;2023-05-23T07:11:09;11.48;;;7.22;;
20629;SDS011;17386;43.846;25.950;2023-05-23T07:13:35;12.20;;;7.20;;
20629;SDS011;17386;43.846;25.950;2023-05-23T07:16:01;11.75;;;7.00;;
20629;SDS011;17386;43.846;25.950;2023-05-23T07:18:27;11.10;;;6.57;;
20629;SDS011;17386;43.846;25.950;2023-05-23T07:20:53;9.85;;;5.88;;
20629;SDS011;17386;43.846;25.950;2023-05-23T07:23:18;13.98;;;6.80;;
20629;SDS011;17386;43.846;25.950;2023-05-23T07:25:45;13.90;;;5.80;;
20629;SDS011;17386;43.846;25.950;2023-05-23T07:28:11;11.00;;;6.07;;
20629;SDS011;17386;43.846;25.950;2023-05-23T07:30:36;11.20;;;6.30;;
20629;SDS011;17386;43.846;25.950;2023-05-23T07:33:03;10.70;;;6.38;;
20629;SDS011;17386;43.846;25.950;2023-05-23T07:35:30;14.95;;;7.45;;
20629;SDS011;17386;43.846;25.950;2023-05-23T07:37:56;10.25;;;7.03;;
20629;SDS011;17386;43.846;25.950;2023-05-23T07:40:24;11.30;;;6.60;;
20629;SDS011;17386;43.846;25.950;2023-05-23T07:42:50;20.75;;;8.10;;
20629;SDS011;17386;43.846;25.950;2023-05-23T07:47:43;15.35;;;6.80;;
20629;SDS011;17386;43.846;25.950;2023-05-23T07:50:09;12.77;;;6.80;;
20629;SDS011;17386;43.846;25.950;2023-05-23T07:52:34;14.73;;;7.47;;
20629;SDS011;17386;43.846;25.950;2023-05-23T07:55:00;14.75;;;7.43;;
20629;SDS011;17386;43.846;25.950;2023-05-23T07:57:27;14.00;;;6.82;;
20629;SDS011;17386;43.846;25.950;2023-05-23T07:59:53;16.67;;;6.82;;
20629;SDS011;17386;43.846;25.950;2023-05-23T08:02:20;11.02;;;6.20;;
20629;SDS011;17386;43.846;25.950;2023-05-23T08:04:46;10.85;;;6.55;;
20629;SDS011;17386;43.846;25.950;2023-05-23T08:07:15;14.77;;;6.15;;
20629;SDS011;17386;43.846;25.950;2023-05-23T08:09:40;21.40;;;9.38;;
20629;SDS011;17386;43.846;25.950;2023-05-23T08:12:06;14.90;;;7.03;;
20629;SDS011;17386;43.846;25.950;2023-05-23T08:14:33;12.25;;;7.03;;
20629;SDS011;17386;43.846;25.950;2023-05-23T08:16:59;12.02;;;6.60;;
20629;SDS011;17386;43.846;25.950;2023-05-23T08:19:25;15.05;;;7.05;;
20629;SDS011;17386;43.846;25.950;2023-05-23T08:21:51;14.38;;;6.45;;
20629;SDS011;17386;43.846;25.950;2023-05-23T08:24:19;11.68;;;6.97;;
20629;SDS011;17386;43.846;25.950;2023-05-23T08:26:47;15.05;;;6.72;;
20629;SDS011;17386;43.846;25.950;2023-05-23T08:29:13;14.27;;;7.07;;
20629;SDS011;17386;43.846;25.950;2023-05-23T08:31:40;17.55;;;6.20;;
20629;SDS011;17386;43.846;25.950;2023-05-23T08:34:07;13.40;;;6.43;;
20629;SDS011;17386;43.846;25.950;2023-05-23T08:36:32;11.50;;;6.03;;
20629;SDS011;17386;43.846;25.950;2023-05-23T08:39:02;14.40;;;6.40;;
20629;SDS011;17386;43.846;25.950;2023-05-23T08:41:29;11.40;;;6.82;;
20629;SDS011;17386;43.846;25.950;2023-05-23T08:43:56;10.82;;;5.53;;
20629;SDS011;17386;43.846;25.950;2023-05-23T08:46:24;12.20;;;6.53;;
20629;SDS011;17386;43.846;25.950;2023-05-23T08:48:53;28.88;;;13.57;;
20629;SDS011;17386;43.846;25.950;2023-05-23T08:51:24;15.90;;;7.47;;
20629;SDS011;17386;43.846;25.950;2023-05-23T08:53:52;12.05;;;6.22;;
20629;SDS011;17386;43.846;25.950;2023-05-23T08:56:20;13.15;;;6.80;;
20629;SDS011;17386;43.846;25.950;2023-05-23T08:58:49;14.50;;;8.00;;
20629;SDS011;17386;43.846;25.950;2023-05-23T09:01:15;11.93;;;7.20;;
20629;SDS011;17386;43.846;25.950;2023-05-23T09:03:46;11.70;;;7.03;;
20629;SDS011;17386;43.846;25.950;2023-05-23T09:06:15;14.68;;;6.72;;
20629;SDS011;17386;43.846;25.950;2023-05-23T09:08:46;12.82;;;7.22;;
20629;SDS011;17386;43.846;25.950;2023-05-23T09:11:13;12.18;;;7.53;;
20629;SDS011;17386;43.846;25.950;2023-05-23T09:13:42;10.45;;;5.95;;
20629;SDS011;17386;43.846;25.950;2023-05-23T09:16:12;10.18;;;6.30;;
20629;SDS011;17386;43.846;25.950;2023-05-23T09:18:43;12.00;;;6.15;;
20629;SDS011;17386;43.846;25.950;2023-05-23T09:21:11;16.10;;;7.95;;
20629;SDS011;17386;43.846;25.950;2023-05-23T09:23:39;10.32;;;6.10;;
20629;SDS011;17386;43.846;25.950;2023-05-23T09:26:09;10.93;;;6.38;;
20629;SDS011;17386;43.846;25.950;2023-05-23T09:28:38;12.77;;;6.38;;
20629;SDS011;17386;43.846;25.950;2023-05-23T09:31:07;15.13;;;6.55;;
20629;SDS011;17386;43.846;25.950;2023-05-23T09:33:47;10.35;;;4.85;;
20629;SDS011;17386;43.846;25.950;2023-05-23T09:36:15;9.10;;;4.93;;
20629;SDS011;17386;43.846;25.950;2023-05-23T09:38:43;16.92;;;7.35;;
20629;SDS011;17386;43.846;25.950;2023-05-23T09:41:11;15.10;;;5.38;;
20629;SDS011;17386;43.846;25.950;2023-05-23T09:44:03;8.82;;;4.47;;
20629;SDS011;17386;43.846;25.950;2023-05-23T09:46:30;12.35;;;7.00;;
20629;SDS011;17386;43.846;25.950;2023-05-23T09:48:56;9.80;;;5.60;;
20629;SDS011;17386;43.846;25.950;2023-05-23T09:51:25;9.15;;;4.50;;
20629;SDS011;17386;43.846;25.950;2023-05-23T09:53:51;8.77;;;5.68;;
20629;SDS011;17386;43.846;25.950;2023-05-23T09:56:18;8.57;;;4.68;;
20629;SDS011;17386;43.846;25.950;2023-05-23T09:58:47;9.30;;;4.50;;
20629;SDS011;17386;43.846;25.950;2023-05-23T10:01:14;9.93;;;5.25;;
20629;SDS011;17386;43.846;25.950;2023-05-23T10:06:17;9.60;;;4.97;;
20629;SDS011;17386;43.846;25.950;2023-05-23T10:08:49;10.00;;;6.72;;
20629;SDS011;17386;43.846;25.950;2023-05-23T10:14:30;12.80;;;6.70;;
20629;SDS011;17386;43.846;25.950;2023-05-23T10:20:12;22.70;;;14.85;;
20629;SDS011;17386;43.846;25.950;2023-05-23T10:22:42;15.73;;;5.97;;
20629;SDS011;17386;43.846;25.950;2023-05-23T10:25:08;7.97;;;3.80;;
20629;SDS011;17386;43.846;25.950;2023-05-23T10:27:38;10.65;;;4.93;;
20629;SDS011;17386;43.846;25.950;2023-05-23T10:30:06;7.80;;;4.57;;
20629;SDS011;17386;43.846;25.950;2023-05-23T10:32:32;14.65;;;9.13;;
20629;SDS011;17386;43.846;25.950;2023-05-23T10:35:00;9.63;;;5.13;;
20629;SDS011;17386;43.846;25.950;2023-05-23T10:38:06;9.23;;;5.03;;
20629;SDS011;17386;43.846;25.950;2023-05-23T10:43:12;10.38;;;4.40;;
20629;SDS011;17386;43.846;25.950;2023-05-23T10:45:45;7.00;;;3.75;;
20629;SDS011;17386;43.846;25.950;2023-05-23T10:51:21;7.53;;;3.88;;
20629;SDS011;17386;43.846;25.950;2023-05-23T10:53:52;14.43;;;9.18;;
20629;SDS011;17386;43.846;25.950;2023-05-23T10:56:21;6.40;;;4.50;;
20629;SDS011;17386;43.846;25.950;2023-05-23T10:58:56;10.40;;;4.15;;
20629;SDS011;17386;43.846;25.950;2023-05-23T11:01:23;10.02;;;6.20;;
20629;SDS011;17386;43.846;25.950;2023-05-23T11:03:51;22.05;;;8.82;;
20629;SDS011;17386;43.846;25.950;2023-05-23T11:09:15;11.73;;;6.85;;
20629;SDS011;17386;43.846;25.950;2023-05-23T11:12:03;11.18;;;5.97;;
20629;SDS011;17386;43.846;25.950;2023-05-23T11:17:18;7.03;;;3.88;;
20629;SDS011;17386;43.846;25.950;2023-05-23T11:20:25;10.13;;;6.03;;
20629;SDS011;17386;43.846;25.950;2023-05-23T11:23:00;8.40;;;4.22;;
20629;SDS011;17386;43.846;25.950;2023-05-23T11:25:44;7.97;;;5.05;;
20629;SDS011;17386;43.846;25.950;2023-05-23T11:28:14;7.70;;;4.03;;
20629;SDS011;17386;43.846;25.950;2023-05-23T11:30:42;7.57;;;4.25;;
20629;SDS011;17386;43.846;25.950;2023-05-23T11:35:43;6.95;;;3.53;;
20629;SDS011;17386;43.846;25.950;2023-05-23T11:38:14;11.13;;;7.38;;
20629;SDS011;17386;43.846;25.950;2023-05-23T11:40:43;11.88;;;6.38;;
20629;SDS011;17386;43.846;25.950;2023-05-23T11:43:14;8.07;;;4.07;;
20629;SDS011;17386;43.846;25.950;2023-05-23T11:45:41;5.75;;;3.20;;
20629;SDS011;17386;43.846;25.950;2023-05-23T11:48:07;11.05;;;4.57;;
20629;SDS011;17386;43.846;25.950;2023-05-23T11:50:34;8.57;;;4.70;;
20629;SDS011;17386;43.846;25.950;2023-05-23T11:53:13;8.50;;;4.80;;
20629;SDS011;17386;43.846;25.950;2023-05-23T11:55:50;7.43;;;3.58;;
20629;SDS011;17386;43.846;25.950;2023-05-23T11:58:21;9.73;;;4.40;;
20629;SDS011;17386;43.846;25.950;2023-05-23T12:00:51;6.70;;;3.60;;
20629;SDS011;17386;43.846;25.950;2023-05-23T12:03:18;6.07;;;3.72;;
20629;SDS011;17386;43.846;25.950;2023-05-23T12:05:44;8.13;;;5.00;;
20629;SDS011;17386;43.846;25.950;2023-05-23T12:08:12;34.60;;;21.65;;
20629;SDS011;17386;43.846;25.950;2023-05-23T12:10:50;10.60;;;6.30;;
20629;SDS011;17386;43.846;25.950;2023-05-23T12:13:17;8.70;;;4.57;;
20629;SDS011;17386;43.846;25.950;2023-05-23T12:15:42;11.93;;;4.03;;
20629;SDS011;17386;43.846;25.950;2023-05-23T12:18:09;7.57;;;4.13;;
20629;SDS011;17386;43.846;25.950;2023-05-23T12:20:37;8.25;;;4.07;;
20629;SDS011;17386;43.846;25.950;2023-05-23T12:23:05;8.70;;;4.07;;
20629;SDS011;17386;43.846;25.950;2023-05-23T12:25:41;11.00;;;4.60;;
20629;SDS011;17386;43.846;25.950;2023-05-23T12:28:06;7.03;;;3.65;;
20629;SDS011;17386;43.846;25.950;2023-05-23T12:30:42;8.48;;;3.67;;
20629;SDS011;17386;43.846;25.950;2023-05-23T12:33:09;5.82;;;3.00;;
20629;SDS011;17386;43.846;25.950;2023-05-23T12:35:37;6.80;;;3.92;;
20629;SDS011;17386;43.846;25.950;2023-05-23T12:38:04;9.60;;;4.65;;
20629;SDS011;17386;43.846;25.950;2023-05-23T12:40:35;9.00;;;3.90;;
20629;SDS011;17386;43.846;25.950;2023-05-23T12:43:01;6.38;;;3.30;;
20629;SDS011;17386;43.846;25.950;2023-05-23T12:45:33;5.13;;;3.22;;
20629;SDS011;17386;43.846;25.950;2023-05-23T12:50:28;5.85;;;3.70;;
20629;SDS011;17386;43.846;25.950;2023-05-23T12:52:56;5.90;;;3.40;;
20629;SDS011;17386;43.846;25.950;2023-05-23T13:00:16;6.32;;;2.92;;
20629;SDS011;17386;43.846;25.950;2023-05-23T13:02:44;3.92;;;2.83;;
20629;SDS011;17386;43.846;25.950;2023-05-23T13:05:11;5.63;;;3.65;;
20629;SDS011;17386;43.846;25.950;2023-05-23T13:07:39;3.95;;;2.50;;
20629;SDS011;17386;43.846;25.950;2023-05-23T13:10:06;6.25;;;3.70;;
20629;SDS011;17386;43.846;25.950;2023-05-23T13:12:33;9.07;;;4.43;;
20629;SDS011;17386;43.846;25.950;2023-05-23T13:15:00;6.68;;;2.83;;
20629;SDS011;17386;43.846;25.950;2023-05-23T13:17:27;6.68;;;3.72;;
20629;SDS011;17386;43.846;25.950;2023-05-23T13:19:52;7.85;;;2.85;;
20629;SDS011;17386;43.846;25.950;2023-05-23T13:22:19;9.77;;;3.95;;
20629;SDS011;17386;43.846;25.950;2023-05-23T13:24:46;5.25;;;3.33;;
20629;SDS011;17386;43.846;25.950;2023-05-23T13:27:12;8.10;;;3.13;;
20629;SDS011;17386;43.846;25.950;2023-05-23T13:29:38;9.07;;;6.20;;
20629;SDS011;17386;43.846;25.950;2023-05-23T13:32:05;6.47;;;3.25;;
20629;SDS011;17386;43.846;25.950;2023-05-23T13:37:02;4.03;;;2.65;;
20629;SDS011;17386;43.846;25.950;2023-05-23T13:39:28;7.10;;;3.40;;
20629;SDS011;17386;43.846;25.950;2023-05-23T13:41:55;6.03;;;3.67;;
20629;SDS011;17386;43.846;25.950;2023-05-23T13:44:22;4.05;;;2.78;;
20629;SDS011;17386;43.846;25.950;2023-05-23T13:46:48;5.70;;;3.28;;
20629;SDS011;17386;43.846;25.950;2023-05-23T13:49:15;6.63;;;3.78;;
20629;SDS011;17386;43.846;25.950;2023-05-23T13:51:41;6.35;;;3.38;;
20629;SDS011;17386;43.846;25.950;2023-05-23T13:54:09;14.13;;;5.35;;
20629;SDS011;17386;43.846;25.950;2023-05-23T13:56:34;5.43;;;3.25;;
20629;SDS011;17386;43.846;25.950;2023-05-23T13:59:02;6.13;;;3.30;;
20629;SDS011;17386;43.846;25.950;2023-05-23T14:01:29;8.07;;;3.35;;
20629;SDS011;17386;43.846;25.950;2023-05-23T14:03:55;6.97;;;3.97;;
20629;SDS011;17386;43.846;25.950;2023-05-23T14:06:22;8.65;;;3.63;;
20629;SDS011;17386;43.846;25.950;2023-05-23T14:08:48;7.13;;;3.45;;
20629;SDS011;17386;43.846;25.950;2023-05-23T14:11:13;6.68;;;3.10;;
20629;SDS011;17386;43.846;25.950;2023-05-23T14:13:39;7.13;;;3.67;;
20629;SDS011;17386;43.846;25.950;2023-05-23T14:16:06;11.65;;;5.85;;
20629;SDS011;17386;43.846;25.950;2023-05-23T14:18:32;13.45;;;7.63;;
20629;SDS011;17386;43.846;25.950;2023-05-23T14:20:59;8.27;;;4.18;;
20629;SDS011;17386;43.846;25.950;2023-05-23T14:23:26;10.43;;;4.13;;
20629;SDS011;17386;43.846;25.950;2023-05-23T14:25:53;5.97;;;4.18;;
20629;SDS011;17386;43.846;25.950;2023-05-23T14:28:19;5.85;;;2.75;;
20629;SDS011;17386;43.846;25.950;2023-05-23T14:30:46;5.43;;;2.95;;
20629;SDS011;17386;43.846;25.950;2023-05-23T14:33:13;8.32;;;3.58;;
20629;SDS011;17386;43.846;25.950;2023-05-23T14:35:40;7.25;;;3.47;;
20629;SDS011;17386;43.846;25.950;2023-05-23T14:38:06;4.93;;;2.60;;
20629;SDS011;17386;43.846;25.950;2023-05-23T14:40:32;16.98;;;15.38;;
20629;SDS011;17386;43.846;25.950;2023-05-23T14:42:58;7.53;;;4.43;;
20629;SDS011;17386;43.846;25.950;2023-05-23T14:45:25;12.20;;;3.67;;
20629;SDS011;17386;43.846;25.950;2023-05-23T14:47:51;5.13;;;3.10;;
20629;SDS011;17386;43.846;25.950;2023-05-23T14:50:18;7.57;;;4.18;;
20629;SDS011;17386;43.846;25.950;2023-05-23T14:52:45;13.15;;;3.85;;
20629;SDS011;17386;43.846;25.950;2023-05-23T14:55:12;11.02;;;4.60;;
20629;SDS011;17386;43.846;25.950;2023-05-23T14:57:38;9.15;;;3.58;;
20629;SDS011;17386;43.846;25.950;2023-05-23T15:00:04;11.85;;;6.20;;
20629;SDS011;17386;43.846;25.950;2023-05-23T15:02:31;10.82;;;6.10;;
20629;SDS011;17386;43.846;25.950;2023-05-23T15:04:57;7.85;;;3.17;;
20629;SDS011;17386;43.846;25.950;2023-05-23T15:07:22;12.00;;;5.85;;
20629;SDS011;17386;43.846;25.950;2023-05-23T15:09:49;11.48;;;4.85;;
20629;SDS011;17386;43.846;25.950;2023-05-23T15:12:17;12.93;;;4.80;;
20629;SDS011;17386;43.846;25.950;2023-05-23T15:14:43;7.88;;;3.80;;